Time;durP1;ratioP1;P1;durP2;ratioP2;P2;SDS_P1;SDS_P2;PMS_P1;PMS_P2;Temp;Humidity;BMP_temperature;BMP_pressure;BME280_temperature;BME280_humidity;BME280_pressure;Samples;Min_cycle;Max_cycle;Signal;HPM_P1;HPM_P2
2022/01/22 00:00:51;;;;;;;3.27;2.73;;;;;;;-3.85;72.80;95382.03;5083351;28;20206;-70
2022/01/22 00:03:18;;;;;;;6.67;2.10;;;;;;;-3.86;73.12;95380.38;5081371;28;20201;-70
2022/01/22 00:05:45;;;;;;;4.70;2.37;;;;;;;-3.79;72.77;95374.75;5082603;28;20308;-69
2022/01/22 00:08:12;;;;;;;2.87;2.67;;;;;;;-3.79;73.24;95372.28;5081042;28;20251;-70
2022/01/22 00:10:42;;;;;;;2.73;2.53;;;;;;;-3.64;72.68;95366.84;5081243;28;20190;-69
2022/01/22 00:14:23;;;;;;;3.70;2.20;;;;;;;-3.60;72.15;95376.91;5080536;28;20229;-70
2022/01/22 00:16:00;;;;;;;7.30;1.83;;;;;;;-3.54;71.73;95383.69;5082632;28;20208;-70
2022/01/22 00:18:27;;;;;;;2.03;1.80;;;;;;;-3.59;72.66;95388.53;5080738;28;20749;-70
2022/01/22 00:20:53;;;;;;;3.73;1.97;;;;;;;-3.54;71.21;95382.03;5079931;28;20283;-71
2022/01/22 00:23:26;;;;;;;4.30;2.30;;;;;;;-3.48;71.05;95384.69;5081351;28;20660;-69
2022/01/22 00:25:52;;;;;;;1.80;1.70;;;;;;;-3.67;72.93;95377.53;5082198;28;20205;-69
2022/01/22 00:28:19;;;;;;;4.57;2.07;;;;;;;-3.60;72.98;95373.59;5081542;28;20281;-71
2022/01/22 00:30:46;;;;;;;1.83;1.73;;;;;;;-3.54;72.35;95379.56;5081595;28;20260;-69
2022/01/22 00:33:15;;;;;;;2.03;1.93;;;;;;;-3.73;72.58;95379.91;5081732;28;20229;-71
2022/01/22 00:35:42;;;;;;;2.30;2.20;;;;;;;-3.68;72.93;95377.50;5081521;28;20208;-71
2022/01/22 00:38:11;;;;;;;2.40;2.20;;;;;;;-3.64;73.43;95372.66;5081077;28;20198;-70
2022/01/22 00:40:39;;;;;;;3.17;2.27;;;;;;;-3.80;73.09;95373.91;5081908;28;20590;-70
2022/01/22 00:43:05;;;;;;;2.40;2.10;;;;;;;-3.77;73.25;95383.94;5082024;28;20201;-71
2022/01/22 00:45:32;;;;;;;3.33;2.17;;;;;;;-3.79;73.86;95375.59;5083164;28;22147;-70
2022/01/22 00:47:59;;;;;;;2.53;2.33;;;;;;;-3.57;73.26;95374.50;5082104;28;20205;-70
2022/01/22 00:50:27;;;;;;;2.80;2.60;;;;;;;-3.48;72.17;95379.72;5082496;28;20224;-70
2022/01/22 00:52:54;;;;;;;2.57;2.37;;;;;;;-3.61;72.64;95377.72;5081975;28;20228;-69
2022/01/22 00:55:21;;;;;;;2.50;2.30;;;;;;;-3.90;73.46;95383.56;5081342;28;20208;-70
2022/01/22 00:57:48;;;;;;;4.90;2.93;;;;;;;-4.04;74.66;95372.44;5082548;28;20208;-70
2022/01/22 01:00:18;;;;;;;4.93;2.10;;;;;;;-3.94;74.07;95381.78;5081614;28;20309;-70
2022/01/22 01:02:45;;;;;;;2.67;1.93;;;;;;;-3.93;73.50;95378.50;5082301;28;20227;-71
2022/01/22 01:05:15;;;;;;;4.23;1.90;;;;;;;-4.09;73.75;95376.44;5082661;28;20201;-70
2022/01/22 01:07:46;;;;;;;10.57;2.50;;;;;;;-4.14;73.88;95378.78;5082331;28;20201;-70
2022/01/22 01:10:16;;;;;;;2.20;2.03;;;;;;;-3.75;72.99;95376.53;5082828;28;20204;-70
2022/01/22 01:12:43;;;;;;;4.03;2.13;;;;;;;-3.81;72.95;95377.22;5081691;28;20265;-69
2022/01/22 01:15:22;;;;;;;3.10;2.40;;;;;;;-3.62;72.78;95371.06;5081820;28;20201;-70
2022/01/22 01:32:05;;;;;;;1.97;1.87;;;;;;;-3.71;73.95;95365.03;5082383;28;20193;-70
2022/01/22 01:34:30;;;;;;;5.77;1.87;;;;;;;-3.69;73.03;95349.34;5080563;28;20227;-69
2022/01/22 01:36:57;;;;;;;4.50;2.13;;;;;;;-3.69;72.97;95348.50;5081456;28;20204;-70
2022/01/22 01:39:29;;;;;;;5.20;2.57;;;;;;;-3.37;72.13;95350.13;5081272;28;20205;-70
2022/01/22 01:42:01;;;;;;;4.00;2.13;;;;;;;-3.52;71.69;95338.19;5077391;28;20200;-70
2022/01/22 01:44:28;;;;;;;5.43;1.90;;;;;;;-3.26;70.75;95345.44;5080334;28;20312;-68
2022/01/22 01:46:58;;;;;;;1.90;1.80;;;;;;;-3.48;70.18;95344.94;5079627;28;20258;-69
2022/01/22 01:49:26;;;;;;;5.27;2.43;;;;;;;-3.60;70.75;95342.13;5081539;28;20217;-70
2022/01/22 01:51:55;;;;;;;2.23;2.00;;;;;;;-3.73;70.20;95341.81;5081871;28;21219;-69
2022/01/22 01:54:33;;;;;;;1.73;1.63;;;;;;;-3.71;71.23;95341.00;5079727;28;20197;-69
2022/01/22 01:59:49;;;;;;;2.30;1.80;;;;;;;-3.55;70.12;95338.13;5081968;28;20212;-71
2022/01/22 02:02:15;;;;;;;3.10;1.90;;;;;;;-3.51;69.87;95339.88;5080497;28;20201;-71
2022/01/22 02:04:43;;;;;;;2.10;2.00;;;;;;;-3.63;70.75;95339.56;5078847;28;20201;-69
2022/01/22 02:07:10;;;;;;;4.93;2.20;;;;;;;-3.64;70.32;95332.91;5076558;28;20204;-70
2022/01/22 02:09:40;;;;;;;7.60;2.40;;;;;;;-3.55;71.00;95337.28;5080553;28;20208;-70
2022/01/22 02:12:14;;;;;;;2.97;2.00;;;;;;;-3.71;70.93;95338.53;5081037;28;20297;-70
2022/01/22 02:25:55;;;;;;;1.90;1.80;;;;;;;-3.44;70.12;95328.44;5081233;28;21039;-70
2022/01/22 02:28:22;;;;;;;4.17;2.17;;;;;;;-3.67;68.83;95317.94;5079525;28;20211;-71
2022/01/22 02:30:54;;;;;;;5.10;2.03;;;;;;;-3.68;68.54;95328.69;5081801;28;20236;-70
2022/01/22 02:33:31;;;;;;;2.00;1.90;;;;;;;-3.45;68.85;95331.72;5081338;28;20722;-69
2022/01/22 02:36:02;;;;;;;3.87;1.60;;;;;;;-3.57;69.04;95299.16;5080262;28;20562;-70
2022/01/22 02:38:37;;;;;;;2.97;2.27;;;;;;;-3.55;69.61;95324.88;5077423;28;20515;-69
2022/01/22 02:41:05;;;;;;;6.33;1.80;;;;;;;-3.53;68.82;95320.78;5081714;28;20653;-69
2022/01/22 02:43:32;;;;;;;1.63;1.40;;;;;;;-3.31;68.35;95315.50;5080917;28;20201;-69
2022/01/22 02:46:01;;;;;;;3.00;2.07;;;;;;;-3.31;67.09;95314.66;5080485;28;20258;-69
2022/01/22 02:48:27;;;;;;;4.27;2.07;;;;;;;-3.51;68.37;95311.72;5081542;28;20639;-70
2022/01/22 02:50:54;;;;;;;5.07;1.87;;;;;;;-3.68;68.66;95315.41;5081391;28;20302;-70
2022/01/22 02:53:21;;;;;;;4.57;2.00;;;;;;;-3.63;69.11;95319.69;5080963;28;20704;-69
2022/01/22 02:55:50;;;;;;;2.67;2.07;;;;;;;-3.67;69.48;95317.94;5079668;28;20205;-70
2022/01/22 02:58:17;;;;;;;1.97;1.80;;;;;;;-3.86;69.45;95328.22;5080639;28;20209;-69
2022/01/22 03:00:44;;;;;;;4.10;2.10;;;;;;;-4.01;70.05;95310.47;5079632;28;20201;-70
2022/01/22 03:03:12;;;;;;;3.10;1.33;;;;;;;-4.07;70.99;95308.66;5080521;28;20208;-72
2022/01/22 03:05:39;;;;;;;2.23;1.70;;;;;;;-3.92;70.58;95315.66;5082241;28;20193;-71
2022/01/22 03:08:06;;;;;;;1.77;1.67;;;;;;;-3.82;70.04;95312.59;5083161;28;20202;-70
2022/01/22 03:10:33;;;;;;;1.90;1.80;;;;;;;-3.86;70.19;95295.94;5085764;28;20255;-70
2022/01/22 03:13:21;;;;;;;2.53;1.63;;;;;;;-3.84;70.77;95301.78;5084686;28;20579;-70
2022/01/22 03:15:56;;;;;;;3.03;2.07;;;;;;;-3.81;70.16;95294.44;5085028;28;20242;-69
2022/01/22 03:18:36;;;;;;;2.80;1.73;;;;;;;-3.70;69.16;95298.00;5083837;28;20646;-70
2022/01/22 03:21:11;;;;;;;2.97;1.63;;;;;;;-3.64;69.42;95293.19;5085570;28;20216;-70
2022/01/22 03:29:10;;;;;;;2.43;2.23;;;;;;;-4.30;69.35;95270.84;5085414;28;20571;-70
2022/01/22 03:31:38;;;;;;;4.77;2.03;;;;;;;-4.34;69.60;95276.53;5084648;28;20616;-71
2022/01/22 03:34:05;;;;;;;2.37;2.10;;;;;;;-4.45;69.89;95275.38;5084116;28;20688;-70
2022/01/22 03:36:32;;;;;;;6.33;2.07;;;;;;;-4.33;69.70;95268.28;5083542;28;20216;-70
2022/01/22 03:38:59;;;;;;;1.90;1.80;;;;;;;-4.37;70.14;95258.22;5084979;28;20197;-71
2022/01/22 03:41:26;;;;;;;2.97;2.50;;;;;;;-4.23;70.02;95269.38;5084866;28;20201;-70
2022/01/22 03:43:53;;;;;;;1.60;1.50;;;;;;;-4.21;70.36;95260.31;5084580;28;20201;-71
2022/01/22 03:46:21;;;;;;;2.03;1.90;;;;;;;-4.28;70.29;95265.94;5083820;28;20767;-70
2022/01/22 03:48:49;;;;;;;2.73;1.80;;;;;;;-4.45;71.08;95268.78;5085779;28;20208;-70
2022/01/22 03:51:16;;;;;;;2.07;1.87;;;;;;;-4.21;70.19;95258.69;5083613;28;20668;-70
2022/01/22 03:53:43;;;;;;;1.70;1.60;;;;;;;-4.25;70.19;95258.56;5084299;28;20279;-70
2022/01/22 03:56:11;;;;;;;2.60;1.90;;;;;;;-4.20;70.52;95264.47;5083775;28;20630;-71
2022/01/22 03:58:40;;;;;;;2.67;2.10;;;;;;;-4.34;70.11;95254.19;5084285;28;20205;-70
2022/01/22 04:03:59;;;;;;;2.70;2.00;;;;;;;-4.24;69.59;95260.25;5084572;28;20207;-71
2022/01/22 04:07:02;;;;;;;2.07;1.87;;;;;;;-4.21;69.43;95263.66;5083438;28;20211;-70
2022/01/22 04:09:28;;;;;;;3.23;1.80;;;;;;;-4.12;70.29;95258.91;5083973;28;20197;-72
2022/01/22 04:11:57;;;;;;;3.87;2.30;;;;;;;-4.04;70.06;95258.25;5083371;28;20197;-71
2022/01/22 04:14:29;;;;;;;5.97;1.93;;;;;;;-3.92;69.67;95266.84;5083126;28;21770;-70
2022/01/22 04:17:08;;;;;;;2.20;1.80;;;;;;;-3.82;69.72;95265.44;5082320;28;20680;-73
2022/01/22 04:25:25;;;;;;;2.47;1.70;;;;;;;-3.93;68.20;95274.25;5084597;28;20204;-73
2022/01/22 04:27:53;;;;;;;3.43;1.97;;;;;;;-4.01;67.14;95265.78;5083845;28;20570;-72
2022/01/22 04:30:22;;;;;;;1.80;1.70;;;;;;;-4.04;68.83;95268.19;5083713;28;20254;-72
2022/01/22 04:32:49;;;;;;;2.73;2.40;;;;;;;-3.94;67.87;95252.72;5082710;28;20723;-72
2022/01/22 04:35:18;;;;;;;3.73;1.90;;;;;;;-4.07;68.55;95245.78;5083144;28;20728;-71
2022/01/22 04:37:46;;;;;;;7.03;2.33;;;;;;;-3.94;68.31;95245.25;5082986;27;20369;-71
2022/01/22 04:40:13;;;;;;;2.63;2.40;;;;;;;-3.70;69.22;95243.34;5083057;28;20601;-71
2022/01/22 04:42:42;;;;;;;2.57;2.33;;;;;;;-3.68;67.99;95241.75;5082554;28;20208;-72
2022/01/22 04:45:18;;;;;;;4.73;2.47;;;;;;;-3.76;68.46;95255.66;5082859;28;20205;-73
2022/01/22 04:47:53;;;;;;;4.57;2.70;;;;;;;-3.76;69.73;95228.34;5082075;28;20282;-73
2022/01/22 04:55:51;;;;;;;3.07;2.13;;;;;;;-3.78;70.33;95230.78;5082713;28;20283;-70
2022/01/22 04:58:17;;;;;;;8.53;2.00;;;;;;;-3.81;69.41;95233.19;5082786;28;20284;-71
2022/01/22 05:00:45;;;;;;;6.37;2.00;;;;;;;-3.59;70.15;95226.22;5083243;28;20201;-70
2022/01/22 05:03:15;;;;;;;2.53;2.33;;;;;;;-3.92;70.31;95213.88;5082900;28;20675;-70
2022/01/22 05:05:44;;;;;;;3.10;2.20;;;;;;;-3.67;70.14;95235.16;5082646;28;20201;-69
2022/01/22 05:08:11;;;;;;;5.03;2.10;;;;;;;-3.55;70.37;95238.75;5080989;28;20623;-69
2022/01/22 05:10:38;;;;;;;3.17;2.50;;;;;;;-3.75;69.62;95232.50;5083349;28;20206;-71
2022/01/22 05:13:05;;;;;;;3.43;2.83;;;;;;;-3.63;69.92;95227.81;5083321;28;20277;-70
2022/01/22 05:15:32;;;;;;;6.40;2.97;;;;;;;-3.91;69.53;95218.03;5082910;28;20201;-71
2022/01/22 05:17:59;;;;;;;4.03;2.27;;;;;;;-3.73;69.88;95217.63;5082032;28;20207;-69
2022/01/22 05:20:29;;;;;;;4.03;2.70;;;;;;;-3.72;70.29;95219.31;5082119;28;20201;-69
2022/01/22 05:23:03;;;;;;;5.17;2.37;;;;;;;-3.63;70.41;95217.03;5081996;28;20738;-70
2022/01/22 05:25:35;;;;;;;5.03;2.53;;;;;;;-3.58;70.24;95208.88;5083851;28;20300;-70
2022/01/22 05:28:17;;;;;;;7.70;2.60;;;;;;;-3.41;69.81;95229.13;5081394;28;20210;-71
2022/01/22 05:30:58;;;;;;;4.67;2.47;;;;;;;-3.69;70.42;95212.75;5082716;28;20331;-71
2022/01/22 05:39:01;;;;;;;4.40;2.53;;;;;;;-3.44;71.00;95224.09;5081572;28;20262;-70
2022/01/22 05:41:27;;;;;;;2.70;2.50;;;;;;;-3.60;70.99;95232.84;5082648;28;20276;-70
2022/01/22 05:43:54;;;;;;;4.23;2.87;;;;;;;-3.55;71.24;95223.03;5081576;28;20210;-71
2022/01/22 05:46:21;;;;;;;5.03;2.70;;;;;;;-3.68;71.33;95221.03;5082073;28;20250;-72
2022/01/22 05:48:47;;;;;;;6.17;2.97;;;;;;;-3.89;71.67;95231.31;5081504;28;20715;-70
2022/01/22 05:51:16;;;;;;;3.40;2.87;;;;;;;-3.74;71.42;95206.03;5082068;28;20202;-69
2022/01/22 05:53:55;;;;;;;6.83;3.83;;;;;;;-3.77;70.79;95216.72;5080970;28;21431;-70
2022/01/22 06:01:52;;;;;;;5.23;3.97;;;;;;;-3.84;72.87;95219.88;5083140;28;20254;-70
2022/01/22 06:04:19;;;;;;;4.70;4.23;;;;;;;-3.77;72.48;95217.56;5082037;28;20198;-70
2022/01/22 06:06:45;;;;;;;5.80;3.13;;;;;;;-3.85;73.07;95210.72;5081448;28;20252;-71
2022/01/22 06:09:12;;;;;;;7.33;3.43;;;;;;;-3.88;73.72;95209.00;5081527;28;20221;-71
2022/01/22 06:11:53;;;;;;;4.30;2.63;;;;;;;-3.55;72.85;95213.94;5082144;28;20212;-70
2022/01/22 06:14:20;;;;;;;2.83;2.53;;;;;;;-3.43;71.90;95206.72;5082285;28;20225;-72
2022/01/22 06:16:47;;;;;;;2.97;2.60;;;;;;;-3.49;72.31;95203.28;5081692;28;20204;-72
2022/01/22 06:19:14;;;;;;;4.23;2.30;;;;;;;-3.50;71.72;95211.56;5080738;28;20579;-71
2022/01/22 06:21:40;;;;;;;16.37;2.43;;;;;;;-3.54;72.15;95190.75;5081399;28;20349;-72
2022/01/22 06:24:08;;;;;;;3.47;2.33;;;;;;;-3.25;70.88;95202.97;5082168;28;20201;-70
2022/01/22 06:26:35;;;;;;;5.30;2.90;;;;;;;-3.58;72.14;95201.44;5081916;28;20643;-72
2022/01/22 06:29:04;;;;;;;2.97;2.70;;;;;;;-3.58;72.44;95198.94;5080948;28;20197;-71
2022/01/22 06:31:30;;;;;;;4.73;2.47;;;;;;;-3.33;71.54;95206.94;5081042;28;20242;-70
2022/01/22 06:33:58;;;;;;;2.47;2.27;;;;;;;-3.48;72.00;95208.28;5081692;28;20229;-69
2022/01/22 06:36:25;;;;;;;2.40;2.20;;;;;;;-3.58;71.75;95211.38;5080716;28;20203;-70
2022/01/22 06:38:56;;;;;;;3.93;2.37;;;;;;;-3.47;71.65;95207.50;5081053;28;20205;-68
2022/01/22 06:44:09;;;;;;;2.13;1.93;;;;;;;-3.53;71.24;95197.41;5085138;28;20358;-69
2022/01/22 06:46:36;;;;;;;2.50;1.90;;;;;;;-3.32;71.09;95191.22;5085757;28;20213;-69
2022/01/22 06:49:03;;;;;;;4.97;1.83;;;;;;;-3.34;70.03;95187.88;5084882;28;20189;-72
2022/01/22 06:51:30;;;;;;;2.13;1.73;;;;;;;-3.31;70.95;95187.94;5085232;28;20279;-70
2022/01/22 06:53:57;;;;;;;2.80;2.20;;;;;;;-3.22;70.88;95186.50;5085178;28;20232;-71
2022/01/22 06:56:25;;;;;;;2.10;2.00;;;;;;;-3.00;68.73;95180.31;5084654;28;20292;-69
2022/01/22 06:58:56;;;;;;;2.63;2.40;;;;;;;-3.06;69.44;95174.38;5083997;28;20205;-71
2022/01/22 07:01:25;;;;;;;6.50;2.23;;;;;;;-2.75;69.24;95176.66;5086796;28;21275;-70
2022/01/22 07:03:51;;;;;;;2.00;1.90;;;;;;;-2.66;67.94;95163.53;5083115;28;20325;-69
2022/01/22 07:06:18;;;;;;;5.37;2.90;;;;;;;-2.40;68.26;95174.78;5083437;28;20205;-72
2022/01/22 07:08:45;;;;;;;32.67;14.40;;;;;;;-2.29;70.44;95178.31;5082734;28;20662;-69
2022/01/22 07:11:12;;;;;;;2.50;2.30;;;;;;;-1.91;67.09;95173.09;5084206;28;20197;-70
2022/01/22 07:13:39;;;;;;;3.93;2.87;;;;;;;-1.29;64.47;95174.03;5083685;28;20750;-72
2022/01/22 07:16:06;;;;;;;3.67;2.90;;;;;;;-0.71;61.35;95184.69;5085094;28;20688;-70
2022/01/22 07:18:35;;;;;;;6.17;2.30;;;;;;;0.64;58.62;95170.06;5082648;28;20288;-71
2022/01/22 07:21:12;;;;;;;3.23;2.37;;;;;;;2.27;54.50;95165.53;5083116;28;20259;-71
2022/01/22 07:26:20;;;;;;;3.77;1.90;;;;;;;2.10;53.60;95162.22;5080123;28;20227;-72
2022/01/22 07:28:47;;;;;;;3.00;2.60;;;;;;;1.80;54.76;95158.00;5082371;28;20201;-69
2022/01/22 07:31:14;;;;;;;3.60;2.83;;;;;;;2.14;53.76;95128.78;5082652;28;20912;-72
2022/01/22 07:33:43;;;;;;;7.07;3.10;;;;;;;3.05;51.86;95148.69;5084440;28;20225;-71
2022/01/22 07:36:10;;;;;;;2.90;2.70;;;;;;;3.75;49.97;95155.88;5085541;28;20208;-70
2022/01/22 07:38:38;;;;;;;5.50;3.23;;;;;;;3.45;49.16;95144.34;5082652;28;20687;-71
2022/01/22 07:41:06;;;;;;;2.93;2.17;;;;;;;2.94;50.96;95142.88;5085215;28;20197;-71
2022/01/22 07:43:33;;;;;;;9.63;4.17;;;;;;;1.72;53.96;95137.97;5084907;28;20450;-70
2022/01/22 07:46:00;;;;;;;5.97;3.57;;;;;;;1.22;56.68;95148.69;5084265;27;20210;-72
2022/01/22 07:48:27;;;;;;;4.97;2.67;;;;;;;1.25;56.55;95152.84;5083491;28;20262;-69
2022/01/22 07:50:55;;;;;;;8.07;4.43;;;;;;;1.89;54.99;95148.00;5084197;28;20207;-71
2022/01/22 07:53:24;;;;;;;20.43;9.73;;;;;;;2.63;53.41;95154.66;5085097;28;20201;-72
2022/01/22 07:55:51;;;;;;;20.97;8.77;;;;;;;2.97;52.46;95143.69;5085270;28;20210;-71
2022/01/22 07:58:18;;;;;;;5.03;3.67;;;;;;;2.27;53.28;95148.00;5083080;28;20283;-71
2022/01/22 08:00:44;;;;;;;3.37;2.43;;;;;;;1.59;53.17;95148.78;5084292;28;20206;-70
2022/01/22 08:03:11;;;;;;;2.60;1.93;;;;;;;1.62;53.29;95148.78;5084943;28;20265;-71
2022/01/22 08:05:38;;;;;;;2.97;2.77;;;;;;;2.57;52.22;95145.47;5084449;28;20595;-71
2022/01/22 08:08:06;;;;;;;4.77;2.07;;;;;;;3.57;48.78;95148.47;5083470;28;20205;-70
2022/01/22 08:10:33;;;;;;;4.13;2.00;;;;;;;4.57;46.50;95127.59;5083366;28;20672;-71
2022/01/22 08:13:00;;;;;;;2.03;1.90;;;;;;;4.76;45.51;95128.25;5084943;28;20213;-72
2022/01/22 08:15:26;;;;;;;2.83;1.90;;;;;;;5.54;45.03;95112.22;5083768;28;20618;-71
2022/01/22 08:17:53;;;;;;;3.83;2.47;;;;;;;7.25;40.92;95108.53;5083543;28;20197;-71
2022/01/22 08:20:21;;;;;;;2.40;2.20;;;;;;;7.31;39.94;95117.69;5083663;28;20205;-70
2022/01/22 08:22:49;;;;;;;2.67;2.10;;;;;;;8.41;38.26;95098.41;5083764;28;20280;-71
2022/01/22 08:25:17;;;;;;;5.40;2.45;;;;;;;9.15;36.75;95083.78;5082943;28;20289;-70
2022/01/22 08:28:53;;;;;;;11.77;7.20;;;;;;;10.52;35.13;95087.22;5083239;28;20208;-72
2022/01/22 08:30:32;;;;;;;18.67;7.20;;;;;;;12.05;31.51;95086.84;5083120;28;20378;-71
2022/01/22 08:33:19;;;;;;;16.83;8.07;;;;;;;12.94;29.38;95077.25;5084954;28;20676;-72
2022/01/22 08:35:54;;;;;;;13.70;7.43;;;;;;;11.91;31.25;95088.19;5083242;28;20240;-71
2022/01/22 08:38:22;;;;;;;7.85;4.25;;;;;;;12.90;29.54;95079.09;5082988;28;20204;-70
2022/01/22 08:40:51;;;;;;;3.03;2.70;;;;;;;12.56;29.33;95073.75;5082404;27;20204;-72
2022/01/22 08:43:18;;;;;;;2.42;2.28;;;;;;;12.03;29.81;95086.91;5082913;28;20231;-71
2022/01/22 08:45:45;;;;;;;2.25;2.05;;;;;;;11.57;30.40;95064.88;5083966;28;20203;-72
2022/01/22 08:48:12;;;;;;;3.35;2.42;;;;;;;11.54;31.14;95076.00;5082050;28;20208;-71
2022/01/22 08:50:39;;;;;;;2.67;2.03;;;;;;;10.95;31.09;95074.75;5083909;28;20246;-71
2022/01/22 08:53:06;;;;;;;3.17;2.33;;;;;;;10.46;32.20;95072.16;5082658;28;20200;-72
2022/01/22 08:55:33;;;;;;;2.20;2.10;;;;;;;9.67;33.79;95074.63;5083262;28;20228;-73
2022/01/22 08:58:02;;;;;;;1.67;1.58;;;;;;;9.55;33.37;95091.06;5082516;28;20667;-71
2022/01/22 09:00:29;;;;;;;3.83;1.98;;;;;;;8.90;34.53;95090.38;5081321;28;20414;-71
2022/01/22 09:02:56;;;;;;;59.55;24.58;;;;;;;8.96;35.66;95086.81;5081272;28;20212;-73
2022/01/22 09:05:31;;;;;;;10.23;5.57;;;;;;;7.08;38.94;95110.56;5083449;28;20201;-72
2022/01/22 09:07:58;;;;;;;23.38;11.10;;;;;;;8.25;40.05;95099.59;5082501;28;20204;-72
2022/01/22 09:10:24;;;;;;;2.85;2.65;;;;;;;9.27;36.00;95100.31;5084367;28;20266;-71
2022/01/22 09:12:51;;;;;;;4.07;2.08;;;;;;;9.47;33.69;95108.19;5081310;28;20811;-70
2022/01/22 09:15:19;;;;;;;2.83;1.60;;;;;;;9.43;34.57;95088.88;5082313;28;20297;-71
2022/01/22 09:17:48;;;;;;;5.70;2.92;;;;;;;8.12;37.06;95089.75;5081119;28;20224;-71
2022/01/22 09:20:30;;;;;;;4.38;1.80;;;;;;;8.08;36.05;95093.22;5081027;28;20204;-72
2022/01/22 09:22:56;;;;;;;4.85;3.35;;;;;;;6.99;40.08;95103.16;5080272;28;20221;-71
2022/01/22 09:25:23;;;;;;;2.60;2.33;;;;;;;7.72;37.22;95089.00;5081361;28;20208;-72
2022/01/22 09:27:50;;;;;;;2.40;2.20;;;;;;;8.15;37.65;95084.63;5078825;28;20205;-73
2022/01/22 09:30:17;;;;;;;66.68;25.50;;;;;;;8.03;38.00;95089.13;5080820;28;20714;-70
2022/01/22 09:32:45;;;;;;;6.30;4.45;;;;;;;8.13;36.07;95086.38;5081766;28;21747;-71
2022/01/22 09:35:11;;;;;;;3.38;2.45;;;;;;;6.87;39.01;95086.53;5083001;28;20646;-72
2022/01/22 09:37:38;;;;;;;4.57;2.67;;;;;;;5.27;40.58;95076.44;5081526;28;20265;-71
2022/01/22 09:40:07;;;;;;;3.23;2.50;;;;;;;5.48;42.38;95070.28;5081671;28;20872;-70
2022/01/22 09:42:34;;;;;;;5.88;2.83;;;;;;;5.37;42.36;95075.47;5081749;28;20668;-72
2022/01/22 09:45:00;;;;;;;2.33;2.13;;;;;;;5.56;41.65;95067.66;5083116;28;20556;-71
2022/01/22 09:47:28;;;;;;;2.20;2.00;;;;;;;5.19;42.28;95058.09;5081703;28;20196;-72
2022/01/22 09:49:56;;;;;;;2.40;2.20;;;;;;;4.31;42.99;95054.88;5081644;28;20596;-72
2022/01/22 09:52:24;;;;;;;2.30;2.00;;;;;;;3.73;46.45;95050.34;5081778;28;20204;-72
2022/01/22 09:54:51;;;;;;;3.22;2.38;;;;;;;3.81;46.15;95035.22;5081497;28;20229;-71
2022/01/22 09:57:18;;;;;;;4.22;2.95;;;;;;;3.98;47.03;95040.91;5081312;28;20292;-72
2022/01/22 09:59:45;;;;;;;6.38;3.38;;;;;;;4.22;46.39;95034.00;5080809;28;20233;-72
2022/01/22 10:02:14;;;;;;;2.15;2.05;;;;;;;4.00;45.53;95039.22;5081452;28;20222;-73
2022/01/22 10:04:45;;;;;;;5.93;1.90;;;;;;;3.70;46.16;95042.00;5082075;28;20220;-71
2022/01/22 10:07:18;;;;;;;2.93;2.60;;;;;;;3.30;48.18;95042.25;5081830;28;20216;-72
2022/01/22 10:09:58;;;;;;;1.98;1.80;;;;;;;3.22;49.19;95031.41;5081825;28;20200;-72
2022/01/22 10:12:27;;;;;;;2.30;2.10;;;;;;;3.19;48.63;95040.66;5081741;28;20586;-72
2022/01/22 10:15:10;;;;;;;43.10;17.20;;;;;;;3.84;53.29;95037.69;5083049;28;20232;-70
2022/01/22 10:17:48;;;;;;;2.15;1.98;;;;;;;3.66;46.20;95028.63;5085850;28;20269;-71
2022/01/22 10:20:37;;;;;;;3.97;2.42;;;;;;;3.03;48.18;95030.69;5086125;28;20201;-73
2022/01/22 10:23:17;;;;;;;3.38;2.72;;;;;;;2.71;48.64;95038.38;5081064;28;20275;-72
2022/01/22 10:25:49;;;;;;;2.40;2.13;;;;;;;2.05;50.24;95015.16;5086237;28;20643;-70
2022/01/22 10:28:21;;;;;;;2.17;1.85;;;;;;;1.57;52.07;95025.22;5085987;28;20193;-71
2022/01/22 10:30:51;;;;;;;2.07;1.87;;;;;;;1.65;51.87;95026.88;5086874;28;20402;-73
2022/01/22 10:33:30;;;;;;;2.03;1.93;;;;;;;1.51;53.92;95020.19;5085212;28;20578;-71
2022/01/22 10:36:10;;;;;;;3.27;2.00;;;;;;;1.80;52.69;95017.69;5086295;28;20319;-70
2022/01/22 10:38:43;;;;;;;4.97;2.03;;;;;;;1.88;51.27;95008.50;5084940;28;20702;-70
2022/01/22 10:41:12;;;;;;;2.47;2.10;;;;;;;1.90;52.17;95009.34;5086037;28;20200;-70
2022/01/22 10:43:43;;;;;;;3.10;2.10;;;;;;;1.76;49.26;95000.97;5085184;28;20208;-71
2022/01/22 10:46:18;;;;;;;6.03;3.50;;;;;;;1.83;51.79;95000.97;5084613;28;20213;-71
2022/01/22 10:48:55;;;;;;;3.93;2.90;;;;;;;1.79;50.04;94993.47;5084451;28;20203;-70
2022/01/22 10:51:22;;;;;;;2.13;1.97;;;;;;;2.09;48.42;94985.91;5083607;28;20215;-69
2022/01/22 10:53:52;;;;;;;3.47;2.13;;;;;;;2.27;47.61;94992.53;5084323;28;20201;-69
2022/01/22 10:56:22;;;;;;;2.93;2.57;;;;;;;2.17;49.40;95000.94;5084284;28;21277;-70
2022/01/22 10:59:00;;;;;;;3.40;2.77;;;;;;;1.74;49.84;94982.59;5085565;28;20212;-69
2022/01/22 11:01:29;;;;;;;3.00;2.63;;;;;;;1.66;49.76;94995.16;5084103;28;21572;-71
2022/01/22 11:04:10;;;;;;;2.87;2.63;;;;;;;1.67;49.75;95009.34;5085186;28;20193;-71
2022/01/22 11:06:39;;;;;;;3.53;2.70;;;;;;;1.88;49.93;94999.31;5084342;28;20227;-69
2022/01/22 11:09:08;;;;;;;2.90;2.70;;;;;;;1.76;51.93;94985.94;5082667;28;20668;-71
2022/01/22 11:11:38;;;;;;;2.13;1.97;;;;;;;1.32;51.37;94980.13;5083748;28;20205;-71
2022/01/22 11:14:07;;;;;;;4.93;2.60;;;;;;;1.48;51.25;94982.66;5082032;28;20995;-70
2022/01/22 11:16:37;;;;;;;12.60;6.43;;;;;;;1.58;51.35;94982.63;5083003;28;20229;-70
2022/01/22 11:19:04;;;;;;;6.07;3.67;;;;;;;1.63;51.68;94982.63;5084280;28;22111;-68
2022/01/22 11:21:32;;;;;;;3.87;2.93;;;;;;;1.71;51.56;94975.97;5081437;28;20281;-71
2022/01/22 11:23:59;;;;;;;3.63;2.57;;;;;;;1.85;50.95;94971.75;5084318;28;20205;-69
2022/01/22 11:26:28;;;;;;;3.73;2.77;;;;;;;1.66;51.63;94963.44;5074799;28;20207;-68
2022/01/22 11:28:56;;;;;;;6.07;2.67;;;;;;;1.34;51.60;94965.94;5084023;28;20205;-69
2022/01/22 11:31:25;;;;;;;2.97;2.20;;;;;;;1.26;53.36;94961.75;5083231;28;20323;-69
2022/01/22 11:33:54;;;;;;;5.30;2.77;;;;;;;1.20;53.14;94939.25;5084465;28;20350;-69
2022/01/22 11:36:25;;;;;;;2.60;2.40;;;;;;;1.56;52.90;94964.25;5084183;28;20236;-67
2022/01/22 11:38:54;;;;;;;2.57;2.33;;;;;;;1.33;53.63;94960.94;5084595;28;21666;-71
2022/01/22 11:41:23;;;;;;;3.10;2.50;;;;;;;1.36;52.99;94944.25;5083945;28;20202;-71
2022/01/22 11:44:10;;;;;;;4.40;3.63;;;;;;;1.28;54.00;94960.94;5083792;28;20197;-69
2022/01/22 11:46:40;;;;;;;2.80;2.60;;;;;;;1.30;54.32;94956.75;5084189;28;20228;-69
2022/01/22 11:49:21;;;;;;;2.30;2.10;;;;;;;1.50;54.93;94966.75;5084360;28;20442;-71
2022/01/22 11:51:50;;;;;;;1.90;1.80;;;;;;;1.51;53.99;94967.59;5083657;28;20666;-71
2022/01/22 11:54:20;;;;;;;2.10;1.93;;;;;;;1.17;54.55;94962.63;5083566;28;20197;-70
2022/01/22 11:56:49;;;;;;;2.10;1.97;;;;;;;1.12;55.96;94965.94;5078517;28;20233;-70
2022/01/22 11:59:28;;;;;;;3.30;2.17;;;;;;;0.87;57.20;94957.56;5082440;28;20205;-69
2022/01/22 12:02:08;;;;;;;2.90;2.70;;;;;;;0.48;57.59;94960.81;5082879;28;20258;-71
2022/01/22 12:05:03;;;;;;;2.30;2.10;;;;;;;0.53;57.97;94962.47;5083770;28;20204;-70
2022/01/22 12:07:35;;;;;;;2.53;2.33;;;;;;;0.62;58.57;94945.00;5083636;28;20311;-68
2022/01/22 12:10:36;;;;;;;4.03;2.80;;;;;;;0.51;59.53;94961.63;5084141;28;20197;-70
2022/01/22 12:16:10;;;;;;;3.93;3.03;;;;;;;0.74;61.90;94953.38;5084035;28;20235;-70
2022/01/22 12:18:44;;;;;;;2.97;2.60;;;;;;;0.58;61.26;94958.31;5083034;27;20201;-68
2022/01/22 12:21:35;;;;;;;4.03;2.50;;;;;;;0.62;61.85;94941.66;5083185;28;22851;-70
2022/01/22 12:24:09;;;;;;;5.77;3.50;;;;;;;0.56;63.35;94947.47;5083722;28;20201;-71
2022/01/22 12:26:53;;;;;;;6.20;2.97;;;;;;;0.39;64.33;94953.25;5084130;28;20208;-68
2022/01/22 12:29:38;;;;;;;5.13;3.03;;;;;;;0.43;64.89;94948.28;5082590;28;20911;-69
2022/01/22 12:32:35;;;;;;;6.30;3.90;;;;;;;0.21;66.30;94954.03;5083081;28;20200;-68
2022/01/22 12:35:08;;;;;;;3.37;3.07;;;;;;;0.33;65.64;94944.06;5083591;28;20268;-69
2022/01/22 12:37:39;;;;;;;2.00;1.90;;;;;;;0.61;64.57;94940.00;5081545;28;20693;-69
2022/01/22 12:40:09;;;;;;;2.23;2.13;;;;;;;0.37;65.26;94948.25;5081292;28;20193;-68
2022/01/22 12:42:59;;;;;;;2.57;2.03;;;;;;;0.44;64.67;94936.63;5081764;28;20217;-69
2022/01/22 12:45:26;;;;;;;7.10;2.20;;;;;;;0.31;65.98;94945.72;5080520;28;20216;-71
2022/01/22 12:47:55;;;;;;;3.67;2.23;;;;;;;0.49;65.42;94935.81;5081041;28;20202;-69
2022/01/22 12:50:30;;;;;;;2.10;1.83;;;;;;;0.41;64.92;94937.44;5080862;28;21172;-70
2022/01/22 12:53:03;;;;;;;2.10;1.87;;;;;;;0.38;65.85;94939.09;5081962;28;22237;-71
2022/01/22 12:58:21;;;;;;;2.73;2.53;;;;;;;0.42;64.93;94931.63;5074225;28;20243;-72
2022/01/22 13:00:48;;;;;;;3.20;2.70;;;;;;;0.30;64.19;94926.56;5081430;28;20209;-71